Time;durP1;ratioP1;P1;durP2;ratioP2;P2;SDS_P1;SDS_P2;PMS_P1;PMS_P2;Temp;Humidity;BMP_temperature;BMP_pressure;BME280_temperature;BME280_humidity;BME280_pressure;Samples;Min_cycle;Max_cycle;Signal;HPM_P1;HPM_P2
2023/07/25 00:01:02;;;;;;;15.95;11.00;;;;;;;14.75;95.11;98209.81;4941698;28;20050;-71
2023/07/25 00:03:28;;;;;;;16.55;11.95;;;;;;;14.76;95.02;98210.66;4940718;28;20704;-73
2023/07/25 00:05:53;;;;;;;16.05;12.45;;;;;;;14.74;95.22;98212.69;4940659;28;20053;-71
2023/07/25 00:08:18;;;;;;;16.33;11.45;;;;;;;14.71;95.11;98229.94;4939221;28;20053;-71
2023/07/25 00:10:45;;;;;;;15.32;11.13;;;;;;;14.66;95.43;98232.31;4939948;28;20049;-72
2023/07/25 00:13:12;;;;;;;16.45;11.88;;;;;;;14.64;96.19;98245.03;4940654;28;20045;-72
2023/07/25 00:15:38;;;;;;;16.10;11.18;;;;;;;14.64;96.05;98237.00;4939426;28;20051;-71
2023/07/25 00:18:04;;;;;;;16.90;11.25;;;;;;;14.67;96.75;98215.19;4950976;28;20060;-72
2023/07/25 00:20:29;;;;;;;13.02;11.05;;;;;;;14.72;97.05;98223.56;4971175;28;20401;-72
2023/07/25 00:22:54;;;;;;;15.90;11.65;;;;;;;14.79;96.90;98223.72;4956317;28;20026;-73
2023/07/25 00:25:20;;;;;;;14.98;11.55;;;;;;;14.82;97.54;98221.53;4955110;28;20046;-72
2023/07/25 00:27:45;;;;;;;12.20;10.30;;;;;;;14.88;97.09;98209.28;4955965;28;20038;-71
2023/07/25 00:30:11;;;;;;;14.85;11.20;;;;;;;14.91;96.76;98203.56;4956102;28;20049;-72
2023/07/25 00:32:38;;;;;;;16.35;10.55;;;;;;;14.94;96.30;98197.03;4955801;28;20046;-71
2023/07/25 00:35:04;;;;;;;14.35;11.27;;;;;;;14.88;96.23;98206.63;4954982;28;20054;-74
2023/07/25 00:37:30;;;;;;;16.35;11.65;;;;;;;14.83;97.06;98201.75;4971136;28;20037;-72
2023/07/25 00:39:56;;;;;;;15.98;11.02;;;;;;;14.87;97.08;98196.88;4935673;28;20058;-71
2023/07/25 00:42:22;;;;;;;17.67;10.82;;;;;;;14.89;97.06;98189.50;4952886;28;20041;-71
2023/07/25 00:44:47;;;;;;;14.40;11.68;;;;;;;14.87;97.46;98173.56;4954099;28;20034;-73
2023/07/25 00:47:16;;;;;;;14.38;10.50;;;;;;;14.90;97.75;98142.84;4975324;28;20045;-71
2023/07/25 00:49:43;;;;;;;13.65;11.05;;;;;;;14.97;97.60;98180.59;4982114;28;20038;-72
2023/07/25 00:52:10;;;;;;;14.07;11.48;;;;;;;15.01;97.15;98187.28;4956960;28;20501;-72
2023/07/25 00:54:39;;;;;;;14.80;11.85;;;;;;;15.02;96.99;98156.72;4953027;28;20053;-71
2023/07/25 00:57:06;;;;;;;18.23;11.50;;;;;;;15.01;96.90;98163.13;4949887;28;20057;-71
2023/07/25 00:59:31;;;;;;;21.48;11.07;;;;;;;14.98;96.10;98161.63;4974040;28;20054;-71
2023/07/25 01:01:57;;;;;;;17.85;10.48;;;;;;;14.99;95.92;98159.78;4945744;28;20058;-71
2023/07/25 01:04:23;;;;;;;17.42;10.95;;;;;;;14.92;96.35;98164.16;4952388;28;20046;-74
2023/07/25 01:06:49;;;;;;;12.73;10.27;;;;;;;14.92;96.20;98166.84;4952494;28;20061;-73
2023/07/25 01:09:15;;;;;;;13.20;9.77;;;;;;;14.94;96.66;98154.94;4971849;28;20054;-70
2023/07/25 01:11:41;;;;;;;14.70;10.82;;;;;;;14.98;96.98;98147.38;4971399;28;20053;-74
2023/07/25 01:14:06;;;;;;;10.77;9.48;;;;;;;14.99;96.83;98151.72;4971557;28;20053;-69
2023/07/25 01:16:33;;;;;;;15.50;10.82;;;;;;;15.01;97.04;98155.91;4956194;28;20108;-69
2023/07/25 01:19:00;;;;;;;12.55;10.77;;;;;;;14.99;96.96;98167.84;4938179;28;20058;-69
2023/07/25 01:21:26;;;;;;;14.38;10.05;;;;;;;14.98;97.38;98156.25;4971054;28;20038;-69
2023/07/25 01:23:52;;;;;;;13.95;9.63;;;;;;;15.02;97.32;98170.16;4955918;28;20046;-71
2023/07/25 01:26:17;;;;;;;12.13;8.90;;;;;;;15.04;97.81;98170.81;4955672;28;20046;-71
2023/07/25 01:28:42;;;;;;;14.05;10.80;;;;;;;15.08;97.56;98166.78;4955694;28;20050;-69
2023/07/25 01:31:07;;;;;;;13.18;9.10;;;;;;;15.12;97.78;98160.06;4948834;28;20534;-68
2023/07/25 01:33:33;;;;;;;10.65;8.35;;;;;;;15.18;97.63;98160.19;4950675;28;20421;-71
2023/07/25 01:36:00;;;;;;;14.68;9.27;;;;;;;15.18;97.58;98164.72;4957750;28;20049;-69
2023/07/25 01:38:25;;;;;;;11.13;9.05;;;;;;;15.23;97.14;98160.53;4974655;28;20053;-76
2023/07/25 01:40:50;;;;;;;11.75;8.88;;;;;;;15.25;97.05;98169.22;4957300;28;20042;-69
2023/07/25 01:43:15;;;;;;;12.63;9.07;;;;;;;15.23;97.03;98160.53;4974595;28;20149;-74
2023/07/25 01:45:40;;;;;;;13.95;9.07;;;;;;;15.26;96.72;98149.41;4974523;28;20038;-71
2023/07/25 01:48:05;;;;;;;10.70;8.45;;;;;;;15.25;97.06;98166.53;4957723;28;20065;-72
2023/07/25 01:50:31;;;;;;;10.15;8.00;;;;;;;15.30;96.79;98166.00;4957285;28;20054;-69
2023/07/25 01:52:56;;;;;;;10.75;7.65;;;;;;;15.31;96.75;98172.22;4974161;28;20050;-70
2023/07/25 01:55:21;;;;;;;10.90;8.18;;;;;;;15.34;96.63;98188.84;4959280;28;20042;-72
2023/07/25 01:57:47;;;;;;;17.40;9.40;;;;;;;15.42;96.32;98178.03;4975219;28;20050;-74
2023/07/25 02:00:12;;;;;;;11.60;8.60;;;;;;;15.45;95.87;98180.38;4975150;28;20061;-73
2023/07/25 02:02:39;;;;;;;10.05;8.18;;;;;;;15.46;95.97;98160.53;4959961;28;20045;-76
2023/07/25 02:05:04;;;;;;;10.38;8.32;;;;;;;15.45;95.30;98185.75;4941847;28;20866;-75
2023/07/25 02:07:30;;;;;;;11.55;8.15;;;;;;;15.47;95.63;98183.69;4951222;28;20046;-74
2023/07/25 02:09:56;;;;;;;12.55;8.35;;;;;;;15.48;95.41;98196.13;4942382;28;20049;-74
2023/07/25 02:12:22;;;;;;;13.82;8.45;;;;;;;15.50;95.29;98215.59;4975649;28;20501;-75
2023/07/25 02:14:47;;;;;;;10.13;8.30;;;;;;;15.55;95.43;98218.63;4959152;28;20038;-79
2023/07/25 02:17:12;;;;;;;12.55;9.18;;;;;;;15.58;95.55;98228.16;4974022;28;20038;-77
2023/07/25 02:19:38;;;;;;;10.40;8.15;;;;;;;15.63;95.37;98224.97;4967235;28;20051;-80
2023/07/25 02:22:04;;;;;;;10.82;8.40;;;;;;;15.67;95.40;98212.88;4942553;28;20058;-76
2023/07/25 02:24:29;;;;;;;11.65;8.07;;;;;;;15.73;95.03;98214.84;4975215;28;20046;-76
2023/07/25 02:26:55;;;;;;;10.05;7.75;;;;;;;15.76;94.74;98203.75;4954383;28;20053;-76
2023/07/25 02:29:20;;;;;;;12.20;8.20;;;;;;;15.81;94.20;98212.94;4957733;28;20833;-75
2023/07/25 02:31:45;;;;;;;12.15;8.07;;;;;;;15.86;93.93;98229.38;4975557;28;20046;-75
2023/07/25 02:34:11;;;;;;;10.43;7.97;;;;;;;15.87;93.36;98240.94;4959178;28;20583;-77
2023/07/25 02:36:38;;;;;;;11.82;8.85;;;;;;;15.90;93.10;98230.69;4960726;28;20046;-76
2023/07/25 02:39:04;;;;;;;12.60;8.40;;;;;;;15.94;93.02;98212.34;4960560;28;20038;-78
2023/07/25 02:41:29;;;;;;;9.90;7.93;;;;;;;15.97;92.63;98206.63;4974011;28;20042;-73
2023/07/25 02:43:54;;;;;;;12.38;8.60;;;;;;;16.01;92.43;98202.56;4958492;28;20046;-75
2023/07/25 02:46:20;;;;;;;9.48;7.68;;;;;;;16.01;92.08;98207.94;4958650;28;20054;-75
2023/07/25 02:48:45;;;;;;;12.38;8.07;;;;;;;16.01;92.12;98207.09;4958487;28;20042;-76
2023/07/25 02:51:12;;;;;;;17.08;9.00;;;;;;;16.07;92.08;98211.75;4958088;28;20493;-69
2023/07/25 02:53:37;;;;;;;13.68;9.02;;;;;;;16.15;92.18;98209.00;4957762;28;20038;-69
2023/07/25 02:56:02;;;;;;;13.52;8.65;;;;;;;16.27;92.23;98200.31;4973016;28;20057;-70
2023/07/25 02:58:28;;;;;;;10.20;7.90;;;;;;;16.39;91.71;98219.56;4955475;28;20054;-68
2023/07/25 03:00:54;;;;;;;10.85;7.47;;;;;;;16.51;91.47;98211.88;4956460;28;20049;-68
2023/07/25 03:03:20;;;;;;;11.82;8.05;;;;;;;16.61;90.78;98199.00;4957476;28;20041;-69
2023/07/25 03:05:45;;;;;;;12.73;8.48;;;;;;;16.66;90.55;98204.72;4972479;28;20440;-69
2023/07/25 03:08:10;;;;;;;12.45;7.88;;;;;;;16.69;89.97;98180.16;4972259;28;20046;-74
2023/07/25 03:10:36;;;;;;;10.82;7.28;;;;;;;16.69;89.64;98197.13;4938689;28;20486;-71
2023/07/25 03:13:01;;;;;;;10.63;8.07;;;;;;;16.65;89.24;98200.38;4938560;28;20117;-71
2023/07/25 03:15:27;;;;;;;13.43;8.43;;;;;;;16.61;88.61;98188.25;4937842;28;20046;-68
2023/07/25 03:17:52;;;;;;;10.30;8.10;;;;;;;16.57;88.60;98186.97;4957993;28;20053;-69
2023/07/25 03:20:17;;;;;;;10.30;8.05;;;;;;;16.53;88.53;98185.66;4962245;28;20050;-73
2023/07/25 03:22:44;;;;;;;12.18;7.60;;;;;;;16.51;88.98;98187.69;4940365;28;20505;-69
2023/07/25 03:25:09;;;;;;;13.88;8.65;;;;;;;16.48;89.06;98185.38;4945475;28;20067;-72
2023/07/25 03:27:36;;;;;;;11.35;8.15;;;;;;;16.44;89.36;98192.13;4955411;28;20054;-72
2023/07/25 03:30:02;;;;;;;10.65;9.27;;;;;;;16.37;89.39;98191.16;4968409;28;20043;-71
2023/07/25 03:32:31;;;;;;;12.32;9.40;;;;;;;16.23;89.32;98199.03;4938179;28;20047;-71
2023/07/25 03:34:56;;;;;;;13.10;8.88;;;;;;;16.11;89.92;98192.41;4954365;28;20058;-71
2023/07/25 03:37:23;;;;;;;11.77;9.57;;;;;;;16.03;90.11;98183.56;4955965;28;20053;-71
2023/07/25 03:39:48;;;;;;;14.95;10.45;;;;;;;15.90;90.61;98194.91;4957375;28;20053;-71
2023/07/25 03:42:13;;;;;;;17.30;10.60;;;;;;;15.87;91.20;98179.97;4972281;28;20053;-71
2023/07/25 03:44:39;;;;;;;12.80;9.73;;;;;;;15.83;91.80;98172.44;4957336;28;20057;-71
2023/07/25 03:47:04;;;;;;;16.88;11.18;;;;;;;15.78;91.84;98169.47;4939931;28;20042;-70
2023/07/25 03:49:29;;;;;;;15.63;10.85;;;;;;;15.78;91.97;98175.69;4939636;28;20058;-71
2023/07/25 03:51:54;;;;;;;12.43;9.88;;;;;;;15.74;92.30;98184.25;4972371;28;20038;-70
2023/07/25 03:54:23;;;;;;;14.80;11.80;;;;;;;15.70;92.98;98156.91;4955993;28;20413;-70
2023/07/25 03:56:52;;;;;;;15.55;11.57;;;;;;;15.75;93.70;98176.03;4957606;28;20046;-69
2023/07/25 03:59:18;;;;;;;15.98;10.75;;;;;;;15.79;94.22;98160.41;4957495;28;20796;-71
2023/07/25 04:01:44;;;;;;;14.75;10.98;;;;;;;15.89;94.34;98172.56;4957428;28;20038;-70
2023/07/25 04:04:09;;;;;;;14.35;10.93;;;;;;;16.01;94.79;98175.69;4972422;28;20045;-70
2023/07/25 04:06:34;;;;;;;16.92;11.82;;;;;;;16.20;95.19;98182.41;4972055;28;20386;-70
2023/07/25 04:08:59;;;;;;;18.58;13.23;;;;;;;16.41;95.29;98176.34;4972167;28;20042;-71
2023/07/25 04:11:24;;;;;;;19.30;14.20;;;;;;;16.63;94.88;98176.31;4956855;28;20050;-70
2023/07/25 04:13:50;;;;;;;14.30;11.38;;;;;;;16.79;94.01;98174.50;4956760;28;20505;-71
2023/07/25 04:16:15;;;;;;;15.05;12.00;;;;;;;16.83;92.69;98208.91;4956608;28;20073;-70
2023/07/25 04:18:42;;;;;;;19.63;12.45;;;;;;;16.89;91.87;98207.34;4956637;28;20061;-69
2023/07/25 04:21:07;;;;;;;17.10;12.18;;;;;;;16.90;91.17;98182.13;4971752;28;20050;-70
2023/07/25 04:23:32;;;;;;;15.95;12.02;;;;;;;16.92;90.84;98191.69;4971855;28;20038;-70
2023/07/25 04:25:58;;;;;;;15.38;11.43;;;;;;;16.95;90.38;98202.06;4954510;28;20065;-70
2023/07/25 04:28:24;;;;;;;14.45;11.27;;;;;;;17.01;90.01;98190.56;4956150;28;20035;-70
2023/07/25 04:30:49;;;;;;;13.93;10.98;;;;;;;17.09;89.94;98186.94;4956185;28;20046;-71
2023/07/25 04:33:14;;;;;;;15.70;12.45;;;;;;;17.18;89.96;98184.97;4955226;28;20054;-71
2023/07/25 04:35:39;;;;;;;15.07;11.40;;;;;;;17.28;89.94;98182.81;4955317;28;20050;-71
2023/07/25 04:38:06;;;;;;;16.80;11.90;;;;;;;17.42;89.27;98203.53;4956467;28;20046;-70
2023/07/25 04:40:32;;;;;;;19.63;12.05;;;;;;;17.54;89.19;98180.47;4955139;28;20073;-70
2023/07/25 04:42:57;;;;;;;15.73;11.35;;;;;;;17.65;88.60;98179.16;4956361;28;20046;-70
2023/07/25 04:45:22;;;;;;;16.15;11.55;;;;;;;17.64;87.84;98188.28;4955065;28;20038;-70
2023/07/25 04:47:47;;;;;;;12.55;10.80;;;;;;;17.62;87.06;98174.13;4956106;28;20048;-71
2023/07/25 04:50:13;;;;;;;17.00;11.73;;;;;;;17.55;86.73;98171.38;4938937;28;20516;-70
2023/07/25 04:52:38;;;;;;;15.90;11.13;;;;;;;17.52;86.89;98168.19;4954445;28;20057;-70
2023/07/25 04:55:04;;;;;;;15.75;10.88;;;;;;;17.54;87.52;98174.25;4971157;28;20049;-71
2023/07/25 04:57:30;;;;;;;14.23;11.50;;;;;;;17.84;87.50;98186.63;4954123;28;20500;-72
2023/07/25 04:59:55;;;;;;;17.77;11.70;;;;;;;18.38;87.33;98194.22;4954680;28;20054;-70
2023/07/25 05:02:23;;;;;;;18.30;11.32;;;;;;;18.76;85.87;98192.06;4956141;28;20057;-73
2023/07/25 05:04:48;;;;;;;13.82;10.40;;;;;;;19.06;83.91;98176.47;4970958;28;20046;-70
2023/07/25 05:07:14;;;;;;;14.73;9.63;;;;;;;19.27;82.63;98167.44;4955858;28;20149;-71
2023/07/25 05:09:39;;;;;;;16.77;10.05;;;;;;;19.56;81.49;98172.56;4956151;28;20046;-71
2023/07/25 05:12:06;;;;;;;13.05;10.13;;;;;;;20.06;80.28;98189.38;4956175;28;20069;-72
2023/07/25 05:14:31;;;;;;;13.25;10.00;;;;;;;20.51;78.30;98176.94;4956025;28;20137;-71
2023/07/25 05:16:56;;;;;;;15.93;10.63;;;;;;;20.91;75.70;98177.75;4970809;28;20054;-72
2023/07/25 05:19:22;;;;;;;13.07;10.25;;;;;;;21.30;73.86;98168.72;4937911;28;20046;-72
2023/07/25 05:21:47;;;;;;;11.73;9.90;;;;;;;21.65;71.96;98190.91;4954947;28;20042;-72
2023/07/25 05:24:12;;;;;;;12.30;9.25;;;;;;;21.82;72.24;98132.38;4956000;28;20057;-70
2023/07/25 05:26:37;;;;;;;15.27;9.50;;;;;;;22.15;70.86;98182.91;4954722;28;20061;-71
2023/07/25 05:29:03;;;;;;;12.63;9.20;;;;;;;22.27;67.82;98183.88;4954240;28;20054;-72
2023/07/25 05:31:28;;;;;;;14.50;9.60;;;;;;;22.38;67.59;98189.44;4956053;28;20386;-71
2023/07/25 05:33:53;;;;;;;14.10;9.63;;;;;;;22.23;68.53;98185.38;4955794;28;20054;-73
2023/07/25 05:36:20;;;;;;;10.80;8.73;;;;;;;21.93;68.67;98185.94;4954770;28;20127;-72
2023/07/25 05:38:46;;;;;;;12.02;9.00;;;;;;;21.58;68.11;98176.53;4955944;28;20042;-72
2023/07/25 05:41:12;;;;;;;13.85;9.23;;;;;;;21.34;70.14;98172.66;4955380;28;20062;-72
2023/07/25 05:43:37;;;;;;;11.90;8.88;;;;;;;21.27;70.92;98174.56;4955867;28;20359;-72
2023/07/25 05:46:02;;;;;;;13.02;9.45;;;;;;;21.44;71.33;98180.34;4970753;28;20049;-73
2023/07/25 05:48:28;;;;;;;11.88;8.73;;;;;;;21.67;71.20;98183.38;4970721;28;20046;-72
2023/07/25 05:50:53;;;;;;;13.63;9.20;;;;;;;21.78;70.85;98182.72;4954192;28;20062;-72
2023/07/25 05:53:19;;;;;;;13.98;9.20;;;;;;;21.72;69.60;98187.09;4955713;28;20042;-74
2023/07/25 05:55:47;;;;;;;11.85;8.45;;;;;;;22.07;69.88;98201.13;4955668;28;20034;-72
2023/07/25 05:58:14;;;;;;;10.05;7.72;;;;;;;22.32;69.07;98193.03;4954012;28;20046;-73
2023/07/25 06:00:41;;;;;;;9.05;7.22;;;;;;;22.33;67.13;98189.28;4955367;28;20041;-73
2023/07/25 06:03:11;;;;;;;10.57;7.45;;;;;;;22.27;66.89;98184.72;4955784;28;20525;-73
2023/07/25 06:05:36;;;;;;;12.25;7.53;;;;;;;23.04;67.70;98182.63;4955264;28;20042;-73
2023/07/25 06:08:01;;;;;;;9.25;6.78;;;;;;;24.32;64.12;98180.63;4951294;28;20054;-71
2023/07/25 06:10:27;;;;;;;11.77;7.47;;;;;;;25.37;60.82;98175.25;4954745;28;20502;-72
2023/07/25 06:12:52;;;;;;;9.95;6.88;;;;;;;25.81;57.61;98187.38;4971037;28;20043;-73
2023/07/25 06:15:18;;;;;;;12.05;7.90;;;;;;;25.46;57.47;98183.88;4954804;28;20046;-72
2023/07/25 06:17:46;;;;;;;11.93;7.70;;;;;;;25.63;57.36;98185.63;4942831;28;20544;-74
2023/07/25 06:20:12;;;;;;;11.57;7.50;;;;;;;26.15;56.72;98184.75;4960047;28;20421;-72
2023/07/25 06:22:37;;;;;;;11.80;6.88;;;;;;;27.18;55.02;98180.78;4987349;28;20037;-72
2023/07/25 06:25:03;;;;;;;8.77;7.05;;;;;;;28.51;51.48;98174.72;4983742;28;20058;-74
2023/07/25 06:27:29;;;;;;;10.88;6.95;;;;;;;29.33;49.04;98170.66;4983591;28;20039;-73
2023/07/25 06:29:57;;;;;;;8.77;6.80;;;;;;;29.77;46.14;98181.34;4974842;28;20057;-73
2023/07/25 06:32:23;;;;;;;9.73;7.43;;;;;;;29.29;46.64;98190.69;4958846;28;20416;-74
2023/07/25 06:34:48;;;;;;;10.48;8.05;;;;;;;28.84;47.20;98172.81;4961282;28;20057;-74
2023/07/25 06:37:14;;;;;;;9.43;7.18;;;;;;;29.51;47.11;98178.47;4959647;28;20034;-73
2023/07/25 06:39:40;;;;;;;9.32;7.43;;;;;;;30.58;45.29;98176.91;4958548;28;20045;-75
2023/07/25 06:42:06;;;;;;;9.25;6.93;;;;;;;30.44;43.99;98184.00;4958515;28;20042;-73
2023/07/25 06:44:34;;;;;;;9.00;7.72;;;;;;;29.78;44.49;98178.31;4973645;28;20050;-73
2023/07/25 06:46:59;;;;;;;12.63;7.50;;;;;;;30.17;43.77;98180.66;4958390;28;20038;-74
2023/07/25 06:49:25;;;;;;;9.23;7.32;;;;;;;31.22;42.21;98176.31;4954436;28;20057;-75
2023/07/25 06:51:50;;;;;;;10.18;7.93;;;;;;;32.20;40.16;98175.69;4937438;28;20058;-71
2023/07/25 06:54:16;;;;;;;8.98;6.93;;;;;;;32.32;39.15;98167.06;4939483;28;20066;-73
2023/07/25 06:56:41;;;;;;;11.68;8.10;;;;;;;31.92;38.98;98171.69;4938852;28;20043;-72
2023/07/25 06:59:06;;;;;;;13.48;8.10;;;;;;;32.31;39.17;98170.94;4937491;28;20058;-72
2023/07/25 07:01:31;;;;;;;8.93;7.22;;;;;;;33.33;37.48;98171.75;4945303;28;20052;-71
2023/07/25 07:03:57;;;;;;;7.95;7.15;;;;;;;34.58;35.70;98183.41;4958003;28;20053;-71
2023/07/25 07:06:22;;;;;;;7.35;6.55;;;;;;;35.13;34.46;98192.75;4957982;28;20049;-70
2023/07/25 07:08:48;;;;;;;10.60;7.38;;;;;;;34.32;34.31;98160.00;4957970;28;20057;-72
2023/07/25 07:11:13;;;;;;;9.07;6.97;;;;;;;33.01;36.32;98185.31;4957927;28;20049;-74
2023/07/25 07:13:38;;;;;;;11.48;7.97;;;;;;;33.52;36.43;98180.13;4956693;28;20413;-72
2023/07/25 07:16:05;;;;;;;8.75;7.32;;;;;;;34.04;35.42;98187.50;4957713;28;20050;-72
2023/07/25 07:18:30;;;;;;;10.73;7.55;;;;;;;33.37;36.02;98217.03;4957872;28;20046;-71
2023/07/25 07:20:55;;;;;;;9.05;6.88;;;;;;;32.32;36.83;98206.50;4957524;28;20046;-71
2023/07/25 07:23:20;;;;;;;11.10;6.38;;;;;;;31.95;37.70;98186.81;4973138;28;20398;-71
2023/07/25 07:25:46;;;;;;;7.30;6.25;;;;;;;32.90;36.62;98212.19;4957889;28;20038;-72
2023/07/25 07:28:13;;;;;;;8.50;6.97;;;;;;;34.74;33.88;98146.06;4957589;28;20049;-71
2023/07/25 07:30:39;;;;;;;8.25;6.93;;;;;;;36.51;31.79;98144.44;4957665;28;20042;-72
2023/07/25 07:33:04;;;;;;;7.60;6.80;;;;;;;36.42;31.00;98190.75;4957543;28;20061;-72
2023/07/25 07:35:29;;;;;;;9.55;7.70;;;;;;;36.33;31.20;98175.97;4957538;28;20405;-72
2023/07/25 07:37:55;;;;;;;9.75;6.78;;;;;;;36.60;30.67;98178.63;4957416;28;20050;-71
2023/07/25 07:40:20;;;;;;;10.68;7.68;;;;;;;37.66;29.56;98130.59;4957151;28;20045;-71
2023/07/25 07:42:45;;;;;;;13.60;7.60;;;;;;;38.59;28.52;98185.13;4957303;28;20050;-72
2023/07/25 07:45:11;;;;;;;8.02;7.22;;;;;;;39.73;27.55;98191.75;4957310;28;20490;-72
2023/07/25 07:48:02;;;;;;;9.57;8.00;;;;;;;41.30;26.71;98185.53;4959435;28;20061;-71
2023/07/25 07:50:33;;;;;;;10.98;7.50;;;;;;;42.03;25.00;98182.81;4975646;28;20045;-72
2023/07/25 07:53:00;;;;;;;9.27;7.95;;;;;;;42.92;23.71;98179.09;4982645;28;20036;-73
2023/07/25 07:55:27;;;;;;;10.20;8.07;;;;;;;43.40;23.21;98173.25;4969213;28;20042;-71
2023/07/25 07:57:55;;;;;;;8.10;7.40;;;;;;;42.17;24.16;98168.44;4937415;28;20081;-73
2023/07/25 08:00:21;;;;;;;9.75;8.85;;;;;;;41.84;24.44;98165.75;4937820;28;20062;-72
2023/07/25 08:02:46;;;;;;;9.85;8.95;;;;;;;42.24;24.15;98187.44;4937611;28;20042;-73
2023/07/25 08:05:12;;;;;;;10.32;8.30;;;;;;;41.69;24.20;98183.25;4950035;28;20058;-72
2023/07/25 08:07:39;;;;;;;8.60;7.75;;;;;;;40.80;24.94;98168.09;4955151;28;20414;-71
2023/07/25 08:10:04;;;;;;;10.48;7.97;;;;;;;40.47;25.39;98173.63;4955362;28;20054;-71
2023/07/25 08:12:32;;;;;;;9.25;8.30;;;;;;;41.25;24.98;98182.13;4938837;28;20058;-72
2023/07/25 08:14:58;;;;;;;11.07;8.95;;;;;;;42.30;23.63;98169.22;4955479;28;20057;-71
2023/07/25 08:17:23;;;;;;;9.95;8.85;;;;;;;42.77;23.30;98155.47;4954927;28;20058;-72
2023/07/25 08:19:49;;;;;;;10.52;9.07;;;;;;;43.14;22.86;98169.28;4956301;28;20038;-72
2023/07/25 08:22:14;;;;;;;9.40;8.50;;;;;;;42.36;22.89;98173.41;4956548;28;20364;-73
2023/07/25 08:24:40;;;;;;;9.32;8.40;;;;;;;40.63;24.46;98169.06;4971746;28;20039;-72
2023/07/25 08:27:06;;;;;;;9.27;8.48;;;;;;;39.13;25.91;98183.59;4956503;28;20523;-73
2023/07/25 08:29:31;;;;;;;8.40;7.38;;;;;;;39.41;25.85;98175.66;4954969;28;20050;-74
2023/07/25 08:31:56;;;;;;;9.15;8.25;;;;;;;39.81;25.13;98181.72;4954873;28;20409;-74
2023/07/25 08:34:22;;;;;;;11.07;8.15;;;;;;;40.63;24.70;98160.66;4954858;28;20057;-74
2023/07/25 08:36:47;;;;;;;9.00;8.07;;;;;;;41.38;23.89;98172.59;4955217;28;20042;-73
2023/07/25 08:39:12;;;;;;;8.98;7.32;;;;;;;41.03;24.20;98151.75;4955817;28;20042;-72
2023/07/25 08:41:43;;;;;;;9.50;6.85;;;;;;;39.74;25.28;98171.06;4956271;28;20042;-71
2023/07/25 08:44:12;;;;;;;8.10;7.30;;;;;;;38.65;26.40;98165.13;4955195;28;20050;-72
2023/07/25 08:46:44;;;;;;;9.00;7.43;;;;;;;37.39;27.46;98169.69;4956465;28;20038;-71
2023/07/25 08:49:15;;;;;;;7.20;6.37;;;;;;;36.14;28.83;98126.13;4956047;28;20046;-71
2023/07/25 08:51:44;;;;;;;9.25;7.45;;;;;;;36.50;28.81;98176.09;4956109;28;20046;-71
2023/07/25 08:54:18;;;;;;;9.65;6.78;;;;;;;37.43;28.05;98165.16;4956002;28;20046;-73
2023/07/25 08:56:45;;;;;;;7.70;6.90;;;;;;;39.00;26.33;98162.31;4956063;28;20057;-73
2023/07/25 08:59:11;;;;;;;10.95;7.43;;;;;;;40.21;24.89;98162.59;4956045;28;20425;-72
2023/07/25 09:01:39;;;;;;;10.95;7.00;;;;;;;40.33;24.57;98165.50;4956038;28;20041;-73
2023/07/25 09:04:04;;;;;;;8.98;6.90;;;;;;;40.29;24.84;98163.75;4955978;28;20042;-71
2023/07/25 09:06:33;;;;;;;9.57;6.97;;;;;;;39.44;25.19;98170.25;4955946;28;20756;-71
2023/07/25 09:08:59;;;;;;;9.65;6.90;;;;;;;38.26;26.19;98156.91;4956131;28;20045;-71
2023/07/25 09:11:25;;;;;;;7.78;7.07;;;;;;;38.17;26.37;98162.44;4956074;28;20041;-73
2023/07/25 09:13:53;;;;;;;7.78;6.65;;;;;;;38.69;25.64;98170.88;4955808;28;20050;-73
2023/07/25 09:16:18;;;;;;;7.60;6.90;;;;;;;40.00;24.43;98161.78;4970798;28;20042;-72
2023/07/25 09:18:44;;;;;;;9.75;7.85;;;;;;;41.25;23.34;98157.75;4955950;28;20061;-71
2023/07/25 09:21:12;;;;;;;8.00;7.20;;;;;;;41.44;22.96;98153.56;4954056;28;20066;-73
2023/07/25 09:23:37;;;;;;;8.30;7.60;;;;;;;41.32;23.33;98146.81;4955900;28;20489;-72
2023/07/25 09:26:10;;;;;;;8.20;7.40;;;;;;;40.44;23.31;98152.75;4955780;28;20080;-72
2023/07/25 09:28:35;;;;;;;7.53;6.82;;;;;;;39.72;24.61;98148.28;4954365;28;20050;-73
2023/07/25 09:31:04;;;;;;;7.35;6.68;;;;;;;39.27;24.80;98158.31;4954287;28;20058;-71
2023/07/25 09:33:31;;;;;;;9.52;7.80;;;;;;;38.82;24.87;98145.63;4956048;28;20053;-73
2023/07/25 09:35:57;;;;;;;8.20;7.25;;;;;;;39.08;24.88;98148.34;4955740;28;20053;-74
2023/07/25 09:38:23;;;;;;;8.60;7.78;;;;;;;40.03;24.78;98134.00;4955805;28;20046;-75
2023/07/25 09:40:49;;;;;;;8.18;7.47;;;;;;;40.95;23.61;98122.72;4955932;28;20054;-72
2023/07/25 09:43:22;;;;;;;9.02;8.13;;;;;;;41.59;23.28;98139.75;4955534;28;20047;-73
2023/07/25 09:45:48;;;;;;;8.20;7.50;;;;;;;42.32;22.53;98150.09;4955758;28;20493;-73
2023/07/25 09:48:15;;;;;;;8.88;8.07;;;;;;;43.47;21.53;98136.09;4955964;28;20039;-72
2023/07/25 09:50:44;;;;;;;9.18;8.38;;;;;;;44.41;20.58;98126.75;4955888;28;20050;-72
2023/07/25 09:53:10;;;;;;;11.40;10.50;;;;;;;45.45;19.97;98117.13;4959261;28;20038;-74
2023/07/25 09:55:36;;;;;;;10.88;9.98;;;;;;;46.52;19.12;98118.75;4959387;28;20050;-72
2023/07/25 09:58:02;;;;;;;12.43;11.10;;;;;;;45.87;19.07;98110.56;4955241;28;20053;-74
2023/07/25 10:00:28;;;;;;;10.25;9.35;;;;;;;43.73;20.46;98127.16;4938697;28;20061;-72
2023/07/25 10:02:57;;;;;;;10.95;9.98;;;;;;;41.42;22.05;98122.38;4954431;28;20047;-72
2023/07/25 10:05:23;;;;;;;9.90;8.73;;;;;;;39.53;23.89;98114.41;4940334;28;20038;-72
2023/07/25 10:07:54;;;;;;;9.45;8.55;;;;;;;38.30;25.59;98116.94;4947893;28;20038;-72
2023/07/25 10:10:19;;;;;;;7.97;7.18;;;;;;;38.38;25.01;98132.00;4943014;28;20054;-72
2023/07/25 10:12:45;;;;;;;9.38;8.48;;;;;;;39.06;24.75;98119.16;4948552;28;20441;-73
2023/07/25 10:15:12;;;;;;;8.50;7.57;;;;;;;38.53;25.43;98125.16;4943361;28;20050;-72
2023/07/25 10:17:37;;;;;;;8.68;7.80;;;;;;;38.37;25.84;98120.06;4945236;28;20046;-72
2023/07/25 10:20:05;;;;;;;8.60;7.80;;;;;;;39.49;25.06;98124.63;4957106;28;20047;-71
2023/07/25 10:22:38;;;;;;;7.97;7.30;;;;;;;40.08;23.98;98122.63;4956152;28;20047;-75
2023/07/25 10:25:09;;;;;;;10.30;7.75;;;;;;;39.69;23.96;98129.44;4942853;28;20046;-75
2023/07/25 10:27:36;;;;;;;10.40;7.97;;;;;;;39.70;24.56;98078.06;4944643;28;20119;-74
2023/07/25 10:30:02;;;;;;;9.00;8.00;;;;;;;40.68;23.42;98114.91;4954103;28;20050;-75
2023/07/25 10:32:46;;;;;;;9.88;8.60;;;;;;;42.44;22.52;98124.06;4925450;28;20057;-72
2023/07/25 10:35:12;;;;;;;8.70;7.90;;;;;;;41.78;22.73;98129.94;4944947;28;20062;-75
2023/07/25 10:37:43;;;;;;;9.25;7.55;;;;;;;40.50;23.82;98108.69;4944816;28;20053;-75
2023/07/25 10:40:09;;;;;;;8.90;8.10;;;;;;;38.86;25.23;98107.56;4941166;28;20046;-73
2023/07/25 10:42:54;;;;;;;8.32;7.45;;;;;;;37.75;26.32;98109.16;4939360;28;20414;-72
2023/07/25 10:45:44;;;;;;;8.32;7.07;;;;;;;36.33;27.70;98110.19;4944615;28;20053;-73
2023/07/25 10:48:42;;;;;;;9.52;6.75;;;;;;;34.97;29.38;98104.72;4950288;28;20051;-73
2023/07/25 10:51:17;;;;;;;10.05;7.50;;;;;;;33.41;31.01;98118.59;4955263;28;20066;-73
2023/07/25 10:54:09;;;;;;;8.25;6.63;;;;;;;32.97;32.30;98118.78;4939014;28;20502;-73
2023/07/25 10:56:35;;;;;;;9.30;7.40;;;;;;;32.08;34.01;98112.59;4956151;28;20524;-70
2023/07/25 10:59:03;;;;;;;8.90;6.40;;;;;;;31.67;35.46;98112.00;4959815;28;20053;-72
2023/07/25 11:01:31;;;;;;;7.50;6.40;;;;;;;31.24;35.63;98116.31;4951671;28;20077;-70
2023/07/25 11:04:19;;;;;;;7.72;6.72;;;;;;;31.07;36.45;98117.69;4941324;28;20050;-71
2023/07/25 11:06:45;;;;;;;8.77;6.70;;;;;;;30.44;36.88;98108.94;4938806;28;20696;-70
2023/07/25 11:09:11;;;;;;;7.88;6.63;;;;;;;30.19;36.80;98112.50;4938703;28;20054;-73
2023/07/25 11:11:42;;;;;;;8.40;6.50;;;;;;;29.99;37.22;98118.78;4939091;28;20415;-71
2023/07/25 11:14:07;;;;;;;8.57;6.95;;;;;;;29.66;38.06;98087.09;4938850;28;20042;-72
2023/07/25 11:16:33;;;;;;;8.10;6.40;;;;;;;29.50;38.86;98104.59;4953401;28;20046;-72
2023/07/25 11:18:59;;;;;;;10.25;6.88;;;;;;;29.41;39.31;98125.44;4957625;28;20049;-73
2023/07/25 11:21:25;;;;;;;8.23;6.53;;;;;;;29.35;38.99;98096.25;4966718;28;20061;-72
2023/07/25 11:24:02;;;;;;;9.48;6.65;;;;;;;29.44;39.55;98120.25;4963454;28;20043;-72